Kimble County Airport
KJCT : now visible

Airfield :











YOU CAN JOIN US ON...

 
LOGIN :

Register | Disclaimer

   EN    FR    IT 

 









Legend :    VFR   Marginal VFR   IFR   Intensive IFR   Very Intensive IFR
Visi :
Ceiling :
>= 8 km
>= 3000ft
5 to 8 km
1000 to 3000 ft
1500m to 5 km
500 to 1000 ft
800 to 1500m
200 to 500 ft
< 800m
< 200 ft
Symbols :   Thunderstorms  Fog  Heavy snow  Heavy precipitations  Wind > 20 kt






- Airport Elevation : 1749 ft


KJCT - Kimble County

CURRENT METAR :
  • 161251Z AUTO 03006KT 4SM BR OVC006 05/04 A2997 RMK AO2 SLP130 T00500039

EXPIRED METARs :
  • 161239Z AUTO 01005KT 4SM BR OVC007 05/04 A2997 RMK AO2 T00500039
  • 161200Z AUTO 36005KT 3SM BR OVC005 05/04 A2995 RMK AO2 CIG 003V009 T00500039
  • 161151Z AUTO 01005KT 2 1/2SM BR OVC005 05/04 A2994 RMK AO2 PRESRR SLP117 T00500039 10111 20050 51035
  • 161109Z AUTO 36006KT 1 1/4SM BR OVC006 05/04 A2992 RMK AO2 T00500039
  • 161051Z AUTO 36008KT 1 1/2SM BR OVC007 05/04 A2991 RMK AO2 SLP100 T00500039

TAF KJCT
Valid from the 16 at 12:00 until the 17 at 12:00 UTC


161120Z 1612/1712 02008KT 1SM BR OVC006
FM161500 02011KT 4SM BR OVC010
FM161700 36011G18KT P6SM SKC
FM170000 36009KT P6SM SKC



MET'MAP, your aeronautical weather chart ! - Copyright ORBIFLY December 2007 - Disclaimer

ORBIFLY MET'MAP TEAM :

Programming & Development : Alexandra Zaïnal
Concept & original design : Baudouin d'Aumeries
Assistance for programming : Marc-Olivier Méhu
Technical & hardware support : Manuel Goepfert

Contact : metmap@orbifly.com




SOURCES & CREDITS :

   NOAA       Earth
Advisory